TAV42M EKCH-LIMC
Flight info
| Callsign | TAV42M |
|---|---|
| Flight time | 2h 14m |
| Altitude | 34000 |
| Route | NEXEN T503 GIMRU DCT KUXOD DCT MICOS DCT RAMAR/N0449F330 DCT ZUCKA/N0449F350 DCT AMOSA/N0449F360 DCT DKB DCT TEDGO DCT SONOM/N0454F350 DCT GERSA DCT SOSON DCT DEGAD Z424 BASGO/N0429F290 Z424 AKASU/N0368F190 Z424 RIXUV |
| Aircraft | A21N/M-SDE2E3FGHIJ1RWXY/LB1 |
Departure
| Time | 2026-05-05 18:12 |
|---|---|
| Airport | Copenhagen Kastrup Airport (EKCH) |
Arrival
| Time | 2026-05-05 20:26 |
|---|---|
| Airport | Milan Malpensa International Airport (LIMC) |
| Time | Latitude | Longitude | Altitude | Speed | Heading |
|---|---|---|---|---|---|
| 2026-05-05 17:31 | 55.62852 | 12.64254 | 23 ft | 0 kts | 99° |
| 2026-05-05 18:00 | 55.62854 | 12.64236 | 22 ft | 2 kts | 99° |
| 2026-05-05 18:00 | 55.62856 | 12.64197 | 22 ft | 4 kts | 82° |
| 2026-05-05 18:00 | 55.62849 | 12.64152 | 24 ft | 5 kts | 66° |
| 2026-05-05 18:01 | 55.62840 | 12.64118 | 24 ft | 5 kts | 67° |
| 2026-05-05 18:01 | 55.62830 | 12.64074 | 22 ft | 5 kts | 69° |
| 2026-05-05 18:01 | 55.62822 | 12.64029 | 22 ft | 5 kts | 79° |
| 2026-05-05 18:01 | 55.62821 | 12.63985 | 24 ft | 3 kts | 103° |
| 2026-05-05 18:02 | 55.62826 | 12.63945 | 22 ft | 5 kts | 104° |
| 2026-05-05 18:02 | 55.62833 | 12.63898 | 22 ft | 4 kts | 104° |
| 2026-05-05 18:02 | 55.62836 | 12.63874 | 22 ft | 3 kts | 104° |
| 2026-05-05 18:04 | 55.62832 | 12.63898 | 25 ft | 7 kts | 111° |
| 2026-05-05 18:05 | 55.62781 | 12.63954 | 24 ft | 12 kts | 188° |
| 2026-05-05 18:05 | 55.62700 | 12.63878 | 22 ft | 14 kts | 213° |
| 2026-05-05 18:05 | 55.62617 | 12.63787 | 24 ft | 15 kts | 200° |
| 2026-05-05 18:05 | 55.62515 | 12.63780 | 22 ft | 15 kts | 163° |
| 2026-05-05 18:06 | 55.62427 | 12.63882 | 22 ft | 16 kts | 127° |
| 2026-05-05 18:06 | 55.62386 | 12.63987 | 23 ft | 14 kts | 123° |
| 2026-05-05 18:06 | 55.62320 | 12.64165 | 19 ft | 12 kts | 124° |
| 2026-05-05 18:06 | 55.62274 | 12.64287 | 21 ft | 12 kts | 124° |
| 2026-05-05 18:07 | 55.62215 | 12.64399 | 22 ft | 13 kts | 159° |
| 2026-05-05 18:07 | 55.62123 | 12.64435 | 22 ft | 14 kts | 169° |
| 2026-05-05 18:07 | 55.62025 | 12.64465 | 24 ft | 15 kts | 170° |
| 2026-05-05 18:07 | 55.61918 | 12.64500 | 24 ft | 16 kts | 169° |
| 2026-05-05 18:08 | 55.61804 | 12.64538 | 22 ft | 17 kts | 169° |
| 2026-05-05 18:08 | 55.61681 | 12.64565 | 22 ft | 19 kts | 198° |
| 2026-05-05 18:08 | 55.61568 | 12.64445 | 22 ft | 19 kts | 214° |
| 2026-05-05 18:08 | 55.61451 | 12.64312 | 25 ft | 20 kts | 212° |
| 2026-05-05 18:09 | 55.61328 | 12.64172 | 24 ft | 21 kts | 213° |
| 2026-05-05 18:09 | 55.61200 | 12.64026 | 22 ft | 22 kts | 213° |
| 2026-05-05 18:09 | 55.61067 | 12.63872 | 23 ft | 23 kts | 213° |
| 2026-05-05 18:09 | 55.60942 | 12.63726 | 22 ft | 19 kts | 213° |
| 2026-05-05 18:10 | 55.60844 | 12.63613 | 23 ft | 13 kts | 212° |
| 2026-05-05 18:10 | 55.60760 | 12.63640 | 22 ft | 14 kts | 134° |
| 2026-05-05 18:10 | 55.60694 | 12.63781 | 23 ft | 16 kts | 126° |
| 2026-05-05 18:10 | 55.60707 | 12.63918 | 24 ft | 0 kts | 42° |
| 2026-05-05 18:11 | 55.60816 | 12.64090 | 25 ft | 56 kts | 41° |
| 2026-05-05 18:11 | 55.61297 | 12.64828 | 24 ft | 126 kts | 41° |
| 2026-05-05 18:11 | 55.62066 | 12.66030 | 253 ft | 154 kts | 39° |
| 2026-05-05 18:12 | 55.62844 | 12.67291 | 912 ft | 149 kts | 38° |
| 2026-05-05 18:12 | 55.63668 | 12.68567 | 1313 ft | 167 kts | 40° |
| 2026-05-05 18:12 | 55.64593 | 12.70007 | 1704 ft | 186 kts | 40° |
| 2026-05-05 18:12 | 55.65406 | 12.71894 | 2198 ft | 205 kts | 65° |
| 2026-05-05 18:13 | 55.65561 | 12.74533 | 2594 ft | 233 kts | 97° |
| 2026-05-05 18:13 | 55.64898 | 12.77287 | 3044 ft | 257 kts | 125° |
| 2026-05-05 18:13 | 55.63498 | 12.79331 | 3794 ft | 268 kts | 153° |
| 2026-05-05 18:13 | 55.61693 | 12.80196 | 4668 ft | 272 kts | 172° |
| 2026-05-05 18:14 | 55.59801 | 12.80022 | 5528 ft | 274 kts | 195° |
| 2026-05-05 18:14 | 55.58109 | 12.78540 | 6418 ft | 274 kts | 218° |
| 2026-05-05 18:14 | 55.56637 | 12.76399 | 7264 ft | 273 kts | 223° |
| 2026-05-05 18:14 | 55.55192 | 12.74205 | 8121 ft | 274 kts | 222° |
| 2026-05-05 18:15 | 55.53757 | 12.72057 | 8947 ft | 275 kts | 222° |
| 2026-05-05 18:15 | 55.52291 | 12.69891 | 9783 ft | 275 kts | 222° |
| 2026-05-05 18:15 | 55.50796 | 12.67695 | 10298 ft | 288 kts | 222° |
| 2026-05-05 18:15 | 55.49202 | 12.65367 | 10571 ft | 307 kts | 222° |
| 2026-05-05 18:16 | 55.47503 | 12.62902 | 10820 ft | 326 kts | 221° |
| 2026-05-05 18:16 | 55.45705 | 12.60309 | 11179 ft | 340 kts | 221° |
| 2026-05-05 18:16 | 55.43861 | 12.57644 | 11806 ft | 345 kts | 222° |
| 2026-05-05 18:16 | 55.41997 | 12.54969 | 12533 ft | 347 kts | 221° |
| 2026-05-05 18:17 | 55.40119 | 12.52277 | 13269 ft | 349 kts | 222° |
| 2026-05-05 18:17 | 55.38229 | 12.49572 | 13970 ft | 352 kts | 222° |
| 2026-05-05 18:17 | 55.36322 | 12.46842 | 14622 ft | 354 kts | 222° |
| 2026-05-05 18:17 | 55.34404 | 12.44098 | 15242 ft | 356 kts | 222° |
| 2026-05-05 18:18 | 55.32478 | 12.41342 | 15855 ft | 359 kts | 222° |
| 2026-05-05 18:18 | 55.30531 | 12.38564 | 16496 ft | 362 kts | 222° |
| 2026-05-05 18:18 | 55.28570 | 12.35771 | 17129 ft | 365 kts | 222° |
| 2026-05-05 18:18 | 55.26593 | 12.32955 | 17750 ft | 367 kts | 222° |
| 2026-05-05 18:19 | 55.24602 | 12.30120 | 18344 ft | 370 kts | 222° |
| 2026-05-05 18:19 | 55.22601 | 12.27284 | 18752 ft | 371 kts | 223° |
| 2026-05-05 18:19 | 55.20596 | 12.24438 | 19093 ft | 372 kts | 223° |
| 2026-05-05 18:19 | 55.18572 | 12.21566 | 19598 ft | 375 kts | 223° |
| 2026-05-05 18:20 | 55.16535 | 12.18686 | 20099 ft | 378 kts | 223° |
| 2026-05-05 18:20 | 55.15178 | 12.16772 | 20445 ft | 379 kts | 223° |
| 2026-05-05 18:20 | 55.12426 | 12.12891 | 21137 ft | 382 kts | 223° |
| 2026-05-05 18:20 | 55.10353 | 12.09972 | 21654 ft | 384 kts | 223° |
| 2026-05-05 18:21 | 55.08267 | 12.07038 | 22161 ft | 386 kts | 223° |
| 2026-05-05 18:21 | 55.06170 | 12.04091 | 22647 ft | 388 kts | 223° |
| 2026-05-05 18:21 | 55.04062 | 12.01132 | 23159 ft | 390 kts | 223° |
| 2026-05-05 18:21 | 55.01942 | 11.98161 | 23606 ft | 392 kts | 223° |
| 2026-05-05 18:22 | 54.99814 | 11.95183 | 24008 ft | 394 kts | 223° |
| 2026-05-05 18:22 | 54.97673 | 11.92190 | 24409 ft | 396 kts | 223° |
| 2026-05-05 18:22 | 54.95522 | 11.89190 | 24819 ft | 397 kts | 223° |
| 2026-05-05 18:22 | 54.93364 | 11.86183 | 25195 ft | 398 kts | 223° |
| 2026-05-05 18:23 | 54.91196 | 11.83168 | 25605 ft | 400 kts | 223° |
| 2026-05-05 18:23 | 54.89017 | 11.80141 | 26003 ft | 401 kts | 222° |
| 2026-05-05 18:23 | 54.86834 | 11.77117 | 26399 ft | 403 kts | 222° |
| 2026-05-05 18:23 | 54.84642 | 11.74077 | 26800 ft | 404 kts | 222° |
| 2026-05-05 18:24 | 54.82467 | 11.71068 | 27198 ft | 405 kts | 223° |
| 2026-05-05 18:24 | 54.80977 | 11.69008 | 27455 ft | 406 kts | 222° |
| 2026-05-05 18:24 | 54.78027 | 11.64993 | 27936 ft | 410 kts | 219° |
| 2026-05-05 18:24 | 54.75521 | 11.62559 | 28280 ft | 419 kts | 208° |
| 2026-05-05 18:25 | 54.72692 | 11.61156 | 28669 ft | 428 kts | 197° |
| 2026-05-05 18:25 | 54.71701 | 11.60877 | 28824 ft | 428 kts | 195° |
| 2026-05-05 18:25 | 54.67759 | 11.59955 | 29458 ft | 426 kts | 194° |
| 2026-05-05 18:25 | 54.64828 | 11.59282 | 29937 ft | 423 kts | 194° |
| 2026-05-05 18:26 | 54.61919 | 11.58583 | 30319 ft | 421 kts | 194° |
| 2026-05-05 18:26 | 54.59025 | 11.57869 | 30643 ft | 420 kts | 194° |
| 2026-05-05 18:26 | 54.56130 | 11.57145 | 30950 ft | 419 kts | 195° |
| 2026-05-05 18:26 | 54.53248 | 11.56424 | 31241 ft | 419 kts | 195° |
| 2026-05-05 18:27 | 54.50361 | 11.55704 | 31537 ft | 418 kts | 195° |
| 2026-05-05 18:27 | 54.47483 | 11.54991 | 31825 ft | 418 kts | 195° |
| 2026-05-05 18:27 | 54.44604 | 11.54281 | 32062 ft | 417 kts | 194° |
| 2026-05-05 18:27 | 54.41739 | 11.53575 | 32392 ft | 415 kts | 194° |
| 2026-05-05 18:28 | 54.36045 | 11.52173 | 32974 ft | 412 kts | 194° |
| 2026-05-05 18:28 | 54.33211 | 11.51474 | 33236 ft | 411 kts | 194° |
| 2026-05-05 18:28 | 54.30386 | 11.50777 | 33471 ft | 410 kts | 195° |
| 2026-05-05 18:29 | 54.27561 | 11.50082 | 33711 ft | 409 kts | 195° |
| 2026-05-05 18:29 | 54.24743 | 11.49386 | 33938 ft | 409 kts | 195° |
| 2026-05-05 18:29 | 54.21932 | 11.48696 | 34113 ft | 408 kts | 194° |
| 2026-05-05 18:29 | 54.19120 | 11.48006 | 34250 ft | 408 kts | 194° |
| 2026-05-05 18:30 | 54.16308 | 11.47316 | 34455 ft | 407 kts | 194° |
| 2026-05-05 18:30 | 54.13509 | 11.46628 | 34624 ft | 406 kts | 194° |
| 2026-05-05 18:30 | 54.10710 | 11.45939 | 34767 ft | 407 kts | 194° |
| 2026-05-05 18:30 | 54.07908 | 11.45250 | 34893 ft | 407 kts | 194° |
| 2026-05-05 18:31 | 54.05114 | 11.44570 | 35015 ft | 407 kts | 194° |
| 2026-05-05 18:31 | 54.02301 | 11.43884 | 35130 ft | 408 kts | 194° |
| 2026-05-05 18:31 | 53.99489 | 11.43198 | 35242 ft | 408 kts | 194° |
| 2026-05-05 18:31 | 53.96674 | 11.42514 | 35364 ft | 409 kts | 194° |
| 2026-05-05 18:32 | 53.91047 | 11.41151 | 35560 ft | 409 kts | 193° |
| 2026-05-05 18:32 | 53.88227 | 11.40464 | 35676 ft | 409 kts | 193° |
| 2026-05-05 18:32 | 53.85408 | 11.39779 | 35779 ft | 410 kts | 193° |
| 2026-05-05 18:33 | 53.82584 | 11.39099 | 35889 ft | 410 kts | 193° |
| 2026-05-05 18:33 | 53.79755 | 11.38428 | 35921 ft | 411 kts | 193° |
| 2026-05-05 18:33 | 53.74098 | 11.37073 | 35911 ft | 410 kts | 193° |
| 2026-05-05 18:34 | 53.68439 | 11.35718 | 35884 ft | 411 kts | 193° |
| 2026-05-05 18:34 | 53.62776 | 11.34355 | 35897 ft | 411 kts | 193° |
| 2026-05-05 18:35 | 53.57106 | 11.33003 | 35892 ft | 411 kts | 193° |
| 2026-05-05 18:35 | 53.51445 | 11.31653 | 35890 ft | 411 kts | 193° |
| 2026-05-05 18:36 | 53.45775 | 11.30308 | 35860 ft | 411 kts | 193° |
| 2026-05-05 18:36 | 53.40107 | 11.28966 | 35888 ft | 412 kts | 192° |
| 2026-05-05 18:37 | 53.34434 | 11.27623 | 35886 ft | 412 kts | 192° |
| 2026-05-05 18:37 | 53.28754 | 11.26283 | 35892 ft | 412 kts | 192° |
| 2026-05-05 18:38 | 53.23075 | 11.24947 | 35894 ft | 412 kts | 192° |
| 2026-05-05 18:38 | 53.17437 | 11.23628 | 35883 ft | 411 kts | 192° |
| 2026-05-05 18:39 | 53.11753 | 11.22298 | 35881 ft | 412 kts | 192° |
| 2026-05-05 18:39 | 53.06062 | 11.20968 | 35882 ft | 411 kts | 192° |
| 2026-05-05 18:40 | 53.00391 | 11.19649 | 35881 ft | 411 kts | 192° |
| 2026-05-05 18:40 | 52.94723 | 11.18330 | 35883 ft | 412 kts | 192° |
| 2026-05-05 18:41 | 52.89054 | 11.17018 | 35886 ft | 411 kts | 192° |
| 2026-05-05 18:41 | 52.83381 | 11.15712 | 35870 ft | 411 kts | 192° |
| 2026-05-05 18:42 | 52.77752 | 11.14420 | 35872 ft | 411 kts | 192° |
| 2026-05-05 18:42 | 52.72078 | 11.13113 | 35852 ft | 412 kts | 191° |
| 2026-05-05 18:43 | 52.66371 | 11.11809 | 35865 ft | 412 kts | 191° |
| 2026-05-05 18:43 | 52.60687 | 11.10508 | 35858 ft | 412 kts | 191° |
| 2026-05-05 18:44 | 52.55005 | 11.09212 | 35861 ft | 412 kts | 191° |
| 2026-05-05 18:44 | 52.49327 | 11.07920 | 35857 ft | 412 kts | 191° |
| 2026-05-05 18:45 | 52.43642 | 11.06633 | 35846 ft | 413 kts | 191° |
| 2026-05-05 18:45 | 52.37953 | 11.05345 | 35849 ft | 413 kts | 191° |
| 2026-05-05 18:46 | 52.32258 | 11.04064 | 35846 ft | 413 kts | 191° |
| 2026-05-05 18:46 | 52.26569 | 11.02789 | 35848 ft | 413 kts | 191° |
| 2026-05-05 18:47 | 52.20878 | 11.01509 | 35844 ft | 412 kts | 191° |
| 2026-05-05 18:47 | 52.15201 | 11.00238 | 35841 ft | 412 kts | 191° |
| 2026-05-05 18:48 | 52.09518 | 10.98969 | 35840 ft | 412 kts | 191° |
| 2026-05-05 18:48 | 52.03837 | 10.97705 | 35842 ft | 412 kts | 190° |
| 2026-05-05 18:49 | 51.98167 | 10.96445 | 35841 ft | 410 kts | 190° |
| 2026-05-05 18:49 | 51.92509 | 10.95180 | 35837 ft | 410 kts | 190° |
| 2026-05-05 18:50 | 51.86857 | 10.93929 | 35833 ft | 410 kts | 190° |
| 2026-05-05 18:50 | 51.81208 | 10.92683 | 35832 ft | 410 kts | 190° |
| 2026-05-05 18:51 | 51.75563 | 10.91444 | 35821 ft | 409 kts | 189° |
| 2026-05-05 18:51 | 51.69919 | 10.90204 | 35823 ft | 409 kts | 189° |
| 2026-05-05 18:52 | 51.64244 | 10.89474 | 35821 ft | 410 kts | 184° |
| 2026-05-05 18:52 | 51.58532 | 10.89271 | 35814 ft | 410 kts | 184° |
| 2026-05-05 18:53 | 51.52824 | 10.89057 | 35811 ft | 410 kts | 183° |
| 2026-05-05 18:53 | 51.47142 | 10.88828 | 35804 ft | 408 kts | 183° |
| 2026-05-05 18:54 | 51.41464 | 10.88595 | 35803 ft | 408 kts | 183° |
| 2026-05-05 18:54 | 51.35783 | 10.88362 | 35797 ft | 408 kts | 183° |
| 2026-05-05 18:55 | 51.30128 | 10.89055 | 35785 ft | 413 kts | 166° |
| 2026-05-05 18:55 | 51.27468 | 10.90848 | 35788 ft | 418 kts | 153° |
| 2026-05-05 18:55 | 51.25111 | 10.93615 | 35790 ft | 425 kts | 141° |
| 2026-05-05 18:56 | 51.21100 | 11.00598 | 35774 ft | 429 kts | 135° |
| 2026-05-05 18:56 | 51.17251 | 11.07899 | 35787 ft | 430 kts | 134° |
| 2026-05-05 18:57 | 51.13412 | 11.15223 | 35789 ft | 431 kts | 134° |
| 2026-05-05 18:57 | 51.09571 | 11.22542 | 35791 ft | 431 kts | 134° |
| 2026-05-05 18:58 | 51.05731 | 11.29851 | 35792 ft | 430 kts | 134° |
| 2026-05-05 18:58 | 51.01892 | 11.37153 | 35782 ft | 431 kts | 134° |
| 2026-05-05 18:59 | 50.98031 | 11.44394 | 35779 ft | 431 kts | 134° |
| 2026-05-05 18:59 | 50.94146 | 11.51645 | 35779 ft | 431 kts | 134° |
| 2026-05-05 19:00 | 50.90266 | 11.58880 | 35780 ft | 431 kts | 134° |
| 2026-05-05 19:00 | 50.86377 | 11.66124 | 35786 ft | 431 kts | 134° |
| 2026-05-05 19:01 | 50.82496 | 11.73343 | 35765 ft | 431 kts | 134° |
| 2026-05-05 19:01 | 50.78609 | 11.80563 | 35757 ft | 432 kts | 134° |
| 2026-05-05 19:02 | 50.74409 | 11.87331 | 35762 ft | 430 kts | 149° |
| 2026-05-05 19:02 | 50.71811 | 11.89544 | 35752 ft | 423 kts | 161° |
| 2026-05-05 19:02 | 50.68995 | 11.90797 | 35763 ft | 418 kts | 171° |
| 2026-05-05 19:03 | 50.63250 | 11.92199 | 35770 ft | 417 kts | 174° |
| 2026-05-05 19:03 | 50.57494 | 11.93385 | 35781 ft | 417 kts | 174° |
| 2026-05-05 19:04 | 50.51731 | 11.94556 | 35790 ft | 417 kts | 174° |
| 2026-05-05 19:04 | 50.46940 | 11.95485 | 35797 ft | 417 kts | 174° |
| 2026-05-05 19:05 | 50.41172 | 11.96391 | 35802 ft | 416 kts | 184° |
| 2026-05-05 19:05 | 50.38317 | 11.95706 | 35811 ft | 415 kts | 196° |
| 2026-05-05 19:05 | 50.35654 | 11.93996 | 35818 ft | 415 kts | 208° |
| 2026-05-05 19:06 | 50.30812 | 11.89081 | 35820 ft | 416 kts | 214° |
| 2026-05-05 19:06 | 50.26081 | 11.83857 | 35816 ft | 417 kts | 214° |
| 2026-05-05 19:07 | 50.21335 | 11.78556 | 35817 ft | 420 kts | 214° |
| 2026-05-05 19:07 | 50.16583 | 11.73242 | 35809 ft | 421 kts | 214° |
| 2026-05-05 19:08 | 50.11827 | 11.67929 | 35799 ft | 420 kts | 214° |
| 2026-05-05 19:08 | 50.07073 | 11.62623 | 35790 ft | 420 kts | 214° |
| 2026-05-05 19:09 | 50.02317 | 11.57331 | 35781 ft | 422 kts | 214° |
| 2026-05-05 19:09 | 49.97540 | 11.52023 | 35785 ft | 422 kts | 214° |
| 2026-05-05 19:10 | 49.92767 | 11.46725 | 35790 ft | 422 kts | 214° |
| 2026-05-05 19:10 | 49.88364 | 11.40700 | 35816 ft | 424 kts | 224° |
| 2026-05-05 19:11 | 49.84298 | 11.34078 | 35791 ft | 423 kts | 224° |
| 2026-05-05 19:11 | 49.80221 | 11.27518 | 35794 ft | 422 kts | 224° |
| 2026-05-05 19:12 | 49.76137 | 11.21003 | 35804 ft | 422 kts | 224° |
| 2026-05-05 19:12 | 49.72045 | 11.14486 | 35810 ft | 422 kts | 224° |
| 2026-05-05 19:13 | 49.67954 | 11.07986 | 35817 ft | 422 kts | 224° |
| 2026-05-05 19:13 | 49.63863 | 11.01502 | 35819 ft | 421 kts | 224° |
| 2026-05-05 19:14 | 49.59775 | 10.95041 | 35813 ft | 421 kts | 224° |
| 2026-05-05 19:14 | 49.55686 | 10.88595 | 35818 ft | 421 kts | 224° |
| 2026-05-05 19:15 | 49.51594 | 10.82159 | 35821 ft | 420 kts | 224° |
| 2026-05-05 19:15 | 49.47493 | 10.75727 | 35840 ft | 422 kts | 224° |
| 2026-05-05 19:16 | 49.43391 | 10.69238 | 35850 ft | 423 kts | 224° |
| 2026-05-05 19:16 | 49.39279 | 10.62765 | 35851 ft | 423 kts | 224° |
| 2026-05-05 19:17 | 49.35158 | 10.56315 | 35846 ft | 424 kts | 224° |
| 2026-05-05 19:17 | 49.31035 | 10.49873 | 35854 ft | 423 kts | 224° |
| 2026-05-05 19:18 | 49.26912 | 10.43446 | 35851 ft | 423 kts | 224° |
| 2026-05-05 19:18 | 49.22784 | 10.37030 | 35853 ft | 423 kts | 224° |
| 2026-05-05 19:19 | 49.18657 | 10.30624 | 35849 ft | 423 kts | 224° |
| 2026-05-05 19:19 | 49.14551 | 10.24221 | 35841 ft | 422 kts | 226° |
| 2026-05-05 19:20 | 49.10799 | 10.17284 | 35857 ft | 426 kts | 229° |
| 2026-05-05 19:20 | 49.07089 | 10.10221 | 35839 ft | 426 kts | 229° |
| 2026-05-05 19:21 | 49.03373 | 10.03192 | 35828 ft | 425 kts | 229° |
| 2026-05-05 19:21 | 48.99651 | 9.96177 | 35823 ft | 426 kts | 229° |
| 2026-05-05 19:22 | 48.95932 | 9.89184 | 35824 ft | 426 kts | 229° |
| 2026-05-05 19:22 | 48.92198 | 9.82180 | 35826 ft | 426 kts | 229° |
| 2026-05-05 19:23 | 48.88463 | 9.75200 | 35825 ft | 425 kts | 229° |
| 2026-05-05 19:23 | 48.84749 | 9.68273 | 35824 ft | 423 kts | 229° |
| 2026-05-05 19:24 | 48.81021 | 9.61344 | 35842 ft | 424 kts | 229° |
| 2026-05-05 19:24 | 48.77284 | 9.54407 | 35845 ft | 425 kts | 229° |
| 2026-05-05 19:25 | 48.73539 | 9.47477 | 35840 ft | 425 kts | 229° |
| 2026-05-05 19:25 | 48.69766 | 9.40512 | 35845 ft | 425 kts | 229° |
| 2026-05-05 19:26 | 48.66028 | 9.33628 | 35833 ft | 422 kts | 229° |
| 2026-05-05 19:26 | 48.62000 | 9.27225 | 35820 ft | 420 kts | 217° |
| 2026-05-05 19:27 | 48.59519 | 9.24926 | 35814 ft | 419 kts | 204° |
| 2026-05-05 19:27 | 48.56764 | 9.23480 | 35824 ft | 420 kts | 197° |
| 2026-05-05 19:27 | 48.51134 | 9.21136 | 35842 ft | 420 kts | 196° |
| 2026-05-05 19:28 | 48.45520 | 9.18720 | 35838 ft | 420 kts | 197° |
| 2026-05-05 19:28 | 48.39916 | 9.16259 | 35840 ft | 419 kts | 197° |
| 2026-05-05 19:29 | 48.34311 | 9.13808 | 35857 ft | 419 kts | 197° |
| 2026-05-05 19:29 | 48.28713 | 9.11360 | 35863 ft | 419 kts | 197° |
| 2026-05-05 19:30 | 48.23112 | 9.08919 | 35891 ft | 420 kts | 197° |
| 2026-05-05 19:30 | 48.20313 | 9.07700 | 36038 ft | 419 kts | 197° |
| 2026-05-05 19:30 | 48.17509 | 9.06480 | 36191 ft | 418 kts | 197° |
| 2026-05-05 19:31 | 48.14714 | 9.05263 | 36323 ft | 418 kts | 197° |
| 2026-05-05 19:31 | 48.11925 | 9.04052 | 36442 ft | 418 kts | 197° |
| 2026-05-05 19:31 | 48.09129 | 9.02841 | 36563 ft | 418 kts | 197° |
| 2026-05-05 19:31 | 48.06334 | 9.01631 | 36677 ft | 418 kts | 197° |
| 2026-05-05 19:32 | 48.03544 | 9.00423 | 36798 ft | 418 kts | 197° |
| 2026-05-05 19:32 | 48.00752 | 8.99213 | 36871 ft | 419 kts | 197° |
| 2026-05-05 19:32 | 47.95161 | 8.96799 | 36880 ft | 418 kts | 197° |
| 2026-05-05 19:33 | 47.89574 | 8.94396 | 36877 ft | 418 kts | 197° |
| 2026-05-05 19:33 | 47.83980 | 8.91997 | 36872 ft | 418 kts | 197° |
| 2026-05-05 19:34 | 47.78395 | 8.89583 | 36889 ft | 418 kts | 199° |
| 2026-05-05 19:35 | 47.70112 | 8.85502 | 36882 ft | 418 kts | 200° |
| 2026-05-05 19:35 | 47.64603 | 8.82779 | 36899 ft | 416 kts | 200° |
| 2026-05-05 19:36 | 47.59095 | 8.80080 | 36899 ft | 416 kts | 200° |
| 2026-05-05 19:36 | 47.53599 | 8.77371 | 36884 ft | 416 kts | 200° |
| 2026-05-05 19:37 | 47.48107 | 8.74673 | 36880 ft | 416 kts | 200° |
| 2026-05-05 19:37 | 47.42619 | 8.71985 | 36882 ft | 415 kts | 200° |
| 2026-05-05 19:38 | 47.37173 | 8.69330 | 36882 ft | 415 kts | 200° |
| 2026-05-05 19:38 | 47.31658 | 8.66639 | 36882 ft | 415 kts | 200° |
| 2026-05-05 19:39 | 47.26171 | 8.63971 | 36878 ft | 415 kts | 200° |
| 2026-05-05 19:39 | 47.20691 | 8.61311 | 36891 ft | 415 kts | 200° |
| 2026-05-05 19:40 | 47.15208 | 8.58657 | 36902 ft | 415 kts | 200° |
| 2026-05-05 19:40 | 47.09723 | 8.56008 | 36932 ft | 415 kts | 200° |
| 2026-05-05 19:41 | 47.04172 | 8.53706 | 36926 ft | 417 kts | 191° |
| 2026-05-05 19:41 | 47.01256 | 8.53524 | 36931 ft | 422 kts | 180° |
| 2026-05-05 19:41 | 46.98330 | 8.53894 | 36941 ft | 423 kts | 178° |
| 2026-05-05 19:42 | 46.92473 | 8.54830 | 36814 ft | 421 kts | 178° |
| 2026-05-05 19:42 | 46.89563 | 8.55272 | 36425 ft | 419 kts | 178° |
| 2026-05-05 19:42 | 46.86657 | 8.55697 | 36161 ft | 419 kts | 178° |
| 2026-05-05 19:42 | 46.83753 | 8.56113 | 35930 ft | 419 kts | 179° |
| 2026-05-05 19:43 | 46.80851 | 8.56528 | 35712 ft | 418 kts | 179° |
| 2026-05-05 19:43 | 46.77959 | 8.56942 | 35471 ft | 418 kts | 180° |
| 2026-05-05 19:43 | 46.76049 | 8.57215 | 35204 ft | 416 kts | 180° |
| 2026-05-05 19:43 | 46.73176 | 8.57627 | 34588 ft | 412 kts | 180° |
| 2026-05-05 19:44 | 46.70332 | 8.58034 | 33931 ft | 410 kts | 181° |
| 2026-05-05 19:44 | 46.67505 | 8.58438 | 33158 ft | 407 kts | 180° |
| 2026-05-05 19:44 | 46.64697 | 8.58838 | 32436 ft | 406 kts | 181° |
| 2026-05-05 19:44 | 46.61874 | 8.59238 | 31684 ft | 406 kts | 180° |
| 2026-05-05 19:45 | 46.59058 | 8.59638 | 31002 ft | 407 kts | 180° |
| 2026-05-05 19:45 | 46.56278 | 8.60038 | 30661 ft | 395 kts | 180° |
| 2026-05-05 19:45 | 46.53587 | 8.60424 | 30352 ft | 384 kts | 180° |
| 2026-05-05 19:45 | 46.50947 | 8.60798 | 29805 ft | 378 kts | 180° |
| 2026-05-05 19:46 | 46.48348 | 8.61156 | 29122 ft | 372 kts | 181° |
| 2026-05-05 19:46 | 46.45821 | 8.61210 | 28711 ft | 353 kts | 189° |
| 2026-05-05 19:46 | 46.43446 | 8.60796 | 28388 ft | 336 kts | 196° |
| 2026-05-05 19:46 | 46.41281 | 8.59735 | 27815 ft | 324 kts | 208° |
| 2026-05-05 19:47 | 46.39170 | 8.58629 | 27165 ft | 323 kts | 197° |
| 2026-05-05 19:47 | 46.36983 | 8.57935 | 26534 ft | 322 kts | 195° |
| 2026-05-05 19:47 | 46.34796 | 8.57287 | 25888 ft | 320 kts | 195° |
| 2026-05-05 19:47 | 46.32562 | 8.56999 | 25401 ft | 327 kts | 184° |
| 2026-05-05 19:48 | 46.30284 | 8.57187 | 25112 ft | 328 kts | 181° |
| 2026-05-05 19:48 | 46.28006 | 8.57433 | 24771 ft | 326 kts | 181° |
| 2026-05-05 19:48 | 46.25749 | 8.57668 | 24269 ft | 325 kts | 181° |
| 2026-05-05 19:48 | 46.23497 | 8.57888 | 23754 ft | 323 kts | 181° |
| 2026-05-05 19:49 | 46.21274 | 8.58100 | 23223 ft | 319 kts | 181° |
| 2026-05-05 19:49 | 46.19062 | 8.58306 | 22654 ft | 318 kts | 181° |
| 2026-05-05 19:49 | 46.16865 | 8.58504 | 22094 ft | 316 kts | 181° |
| 2026-05-05 19:49 | 46.14679 | 8.58705 | 21536 ft | 315 kts | 181° |
| 2026-05-05 19:50 | 46.12494 | 8.58901 | 21029 ft | 312 kts | 181° |
| 2026-05-05 19:50 | 46.10324 | 8.59104 | 20546 ft | 311 kts | 180° |
| 2026-05-05 19:50 | 46.08171 | 8.59304 | 20070 ft | 312 kts | 180° |
| 2026-05-05 19:50 | 46.06017 | 8.59498 | 19608 ft | 310 kts | 180° |
| 2026-05-05 19:51 | 46.03866 | 8.59691 | 19175 ft | 309 kts | 180° |
| 2026-05-05 19:51 | 46.01719 | 8.59883 | 18796 ft | 307 kts | 180° |
| 2026-05-05 19:51 | 45.99630 | 8.60075 | 18594 ft | 296 kts | 180° |
| 2026-05-05 19:51 | 45.97609 | 8.60260 | 18410 ft | 284 kts | 180° |
| 2026-05-05 19:52 | 45.95657 | 8.60440 | 18053 ft | 279 kts | 180° |
| 2026-05-05 19:52 | 45.93725 | 8.60612 | 17588 ft | 277 kts | 180° |
| 2026-05-05 19:52 | 45.91831 | 8.60781 | 17116 ft | 276 kts | 180° |
| 2026-05-05 19:52 | 45.89932 | 8.61193 | 16620 ft | 279 kts | 166° |
| 2026-05-05 19:53 | 45.88149 | 8.62354 | 16141 ft | 282 kts | 157° |
| 2026-05-05 19:53 | 45.86409 | 8.63670 | 15718 ft | 283 kts | 156° |
| 2026-05-05 19:53 | 45.84683 | 8.64988 | 15340 ft | 282 kts | 156° |
| 2026-05-05 19:53 | 45.82951 | 8.66307 | 14982 ft | 280 kts | 157° |
| 2026-05-05 19:54 | 45.81229 | 8.67610 | 14612 ft | 279 kts | 157° |
| 2026-05-05 19:54 | 45.79506 | 8.68907 | 14221 ft | 280 kts | 156° |
| 2026-05-05 19:54 | 45.77788 | 8.70197 | 13857 ft | 278 kts | 156° |
| 2026-05-05 19:54 | 45.76078 | 8.71480 | 13475 ft | 277 kts | 156° |
| 2026-05-05 19:55 | 45.74379 | 8.72763 | 13107 ft | 275 kts | 156° |
| 2026-05-05 19:55 | 45.72689 | 8.74036 | 12744 ft | 273 kts | 156° |
| 2026-05-05 19:55 | 45.71012 | 8.75301 | 12393 ft | 272 kts | 156° |
| 2026-05-05 19:55 | 45.69345 | 8.76553 | 12069 ft | 270 kts | 155° |
| 2026-05-05 19:56 | 45.67683 | 8.77800 | 11979 ft | 270 kts | 155° |
| 2026-05-05 19:56 | 45.66024 | 8.79045 | 11971 ft | 269 kts | 155° |
| 2026-05-05 19:56 | 45.64372 | 8.80284 | 11896 ft | 266 kts | 155° |
| 2026-05-05 19:56 | 45.62736 | 8.81508 | 11457 ft | 264 kts | 155° |
| 2026-05-05 19:57 | 45.61112 | 8.82723 | 11023 ft | 263 kts | 155° |
| 2026-05-05 19:57 | 45.59499 | 8.83930 | 10598 ft | 261 kts | 155° |
| 2026-05-05 19:57 | 45.57889 | 8.85133 | 10228 ft | 260 kts | 155° |
| 2026-05-05 19:57 | 45.56286 | 8.86332 | 9962 ft | 259 kts | 155° |
| 2026-05-05 19:58 | 45.54694 | 8.87520 | 9630 ft | 258 kts | 155° |
| 2026-05-05 19:58 | 45.53105 | 8.88706 | 9320 ft | 257 kts | 154° |
| 2026-05-05 19:58 | 45.51522 | 8.89887 | 9103 ft | 255 kts | 154° |
| 2026-05-05 19:58 | 45.49900 | 8.90917 | 8913 ft | 254 kts | 165° |
| 2026-05-05 19:59 | 45.48193 | 8.91456 | 8543 ft | 250 kts | 171° |
| 2026-05-05 19:59 | 45.46489 | 8.91894 | 8125 ft | 249 kts | 171° |
| 2026-05-05 19:59 | 45.44788 | 8.92335 | 7720 ft | 248 kts | 171° |
| 2026-05-05 19:59 | 45.43096 | 8.92780 | 7388 ft | 245 kts | 171° |
| 2026-05-05 20:00 | 45.41465 | 8.93215 | 7190 ft | 233 kts | 171° |
| 2026-05-05 20:00 | 45.39913 | 8.93632 | 7037 ft | 220 kts | 171° |
| 2026-05-05 20:00 | 45.38449 | 8.94028 | 6781 ft | 211 kts | 171° |
| 2026-05-05 20:00 | 45.37013 | 8.94412 | 6434 ft | 208 kts | 171° |
| 2026-05-05 20:01 | 45.35599 | 8.94795 | 6081 ft | 207 kts | 171° |
| 2026-05-05 20:01 | 45.34180 | 8.95178 | 5976 ft | 208 kts | 171° |
| 2026-05-05 20:01 | 45.32755 | 8.95564 | 5967 ft | 209 kts | 171° |
| 2026-05-05 20:01 | 45.31330 | 8.95949 | 5975 ft | 208 kts | 171° |
| 2026-05-05 20:02 | 45.29916 | 8.96333 | 5977 ft | 207 kts | 171° |
| 2026-05-05 20:02 | 45.28497 | 8.96719 | 5978 ft | 208 kts | 171° |
| 2026-05-05 20:02 | 45.27078 | 8.97104 | 5965 ft | 208 kts | 171° |
| 2026-05-05 20:02 | 45.25653 | 8.97491 | 5964 ft | 208 kts | 171° |
| 2026-05-05 20:03 | 45.24231 | 8.97877 | 5966 ft | 208 kts | 171° |
| 2026-05-05 20:03 | 45.22809 | 8.98261 | 5968 ft | 208 kts | 171° |
| 2026-05-05 20:03 | 45.21394 | 8.98648 | 5967 ft | 208 kts | 171° |
| 2026-05-05 20:03 | 45.19976 | 8.99029 | 5966 ft | 208 kts | 171° |
| 2026-05-05 20:04 | 45.18554 | 8.99405 | 5966 ft | 207 kts | 171° |
| 2026-05-05 20:04 | 45.17134 | 8.99780 | 5964 ft | 207 kts | 171° |
| 2026-05-05 20:04 | 45.15713 | 9.00152 | 5965 ft | 208 kts | 171° |
| 2026-05-05 20:04 | 45.14289 | 9.00522 | 5967 ft | 208 kts | 171° |
| 2026-05-05 20:05 | 45.12871 | 9.00889 | 5964 ft | 207 kts | 171° |
| 2026-05-05 20:05 | 45.11449 | 9.01261 | 5964 ft | 208 kts | 171° |
| 2026-05-05 20:05 | 45.10031 | 9.01633 | 5965 ft | 208 kts | 171° |
| 2026-05-05 20:05 | 45.08607 | 9.02001 | 5961 ft | 207 kts | 171° |
| 2026-05-05 20:06 | 45.07186 | 9.02366 | 5962 ft | 208 kts | 171° |
| 2026-05-05 20:06 | 45.05785 | 9.02727 | 5961 ft | 208 kts | 171° |
| 2026-05-05 20:06 | 45.04362 | 9.03097 | 5962 ft | 208 kts | 171° |
| 2026-05-05 20:06 | 45.02941 | 9.03467 | 5964 ft | 207 kts | 171° |
| 2026-05-05 20:07 | 45.01528 | 9.03844 | 5962 ft | 205 kts | 171° |
| 2026-05-05 20:07 | 45.00125 | 9.04229 | 5961 ft | 206 kts | 171° |
| 2026-05-05 20:07 | 44.98706 | 9.04618 | 5961 ft | 205 kts | 171° |
| 2026-05-05 20:07 | 44.97320 | 9.04999 | 5962 ft | 206 kts | 171° |
| 2026-05-05 20:08 | 44.95898 | 9.05390 | 5963 ft | 205 kts | 171° |
| 2026-05-05 20:08 | 44.94516 | 9.05772 | 5963 ft | 205 kts | 171° |
| 2026-05-05 20:08 | 44.93116 | 9.06159 | 5966 ft | 205 kts | 171° |
| 2026-05-05 20:08 | 44.91711 | 9.06544 | 5956 ft | 207 kts | 171° |
| 2026-05-05 20:09 | 44.90301 | 9.06922 | 5964 ft | 206 kts | 171° |
| 2026-05-05 20:09 | 44.88896 | 9.07305 | 5960 ft | 206 kts | 171° |
| 2026-05-05 20:09 | 44.87487 | 9.07686 | 5964 ft | 206 kts | 171° |
| 2026-05-05 20:09 | 44.86085 | 9.08068 | 5966 ft | 205 kts | 171° |
| 2026-05-05 20:10 | 44.84682 | 9.08453 | 5956 ft | 206 kts | 171° |
| 2026-05-05 20:10 | 44.83273 | 9.08597 | 5944 ft | 204 kts | 193° |
| 2026-05-05 20:10 | 44.82042 | 9.07698 | 5953 ft | 201 kts | 225° |
| 2026-05-05 20:10 | 44.81379 | 9.05971 | 5971 ft | 207 kts | 257° |
| 2026-05-05 20:11 | 44.81493 | 9.03935 | 5968 ft | 215 kts | 283° |
| 2026-05-05 20:11 | 44.82182 | 9.02040 | 5960 ft | 222 kts | 308° |
| 2026-05-05 20:11 | 44.83473 | 9.00797 | 5966 ft | 232 kts | 336° |
| 2026-05-05 20:11 | 44.85028 | 9.00208 | 5966 ft | 231 kts | 345° |
| 2026-05-05 20:12 | 44.86592 | 8.99723 | 5966 ft | 229 kts | 345° |
| 2026-05-05 20:12 | 44.88154 | 8.99211 | 5970 ft | 231 kts | 344° |
| 2026-05-05 20:12 | 44.89717 | 8.98671 | 5972 ft | 231 kts | 343° |
| 2026-05-05 20:12 | 44.91272 | 8.98111 | 5972 ft | 231 kts | 343° |
| 2026-05-05 20:13 | 44.92830 | 8.97545 | 5961 ft | 231 kts | 343° |
| 2026-05-05 20:13 | 44.94381 | 8.96976 | 5960 ft | 231 kts | 342° |
| 2026-05-05 20:13 | 44.95932 | 8.96402 | 5962 ft | 231 kts | 343° |
| 2026-05-05 20:13 | 44.97484 | 8.95831 | 5959 ft | 230 kts | 343° |
| 2026-05-05 20:14 | 44.99033 | 8.95261 | 5956 ft | 231 kts | 343° |
| 2026-05-05 20:14 | 45.00588 | 8.94687 | 5962 ft | 231 kts | 343° |
| 2026-05-05 20:14 | 45.02141 | 8.94115 | 5966 ft | 231 kts | 342° |
| 2026-05-05 20:14 | 45.03691 | 8.93530 | 5976 ft | 230 kts | 343° |
| 2026-05-05 20:15 | 45.05228 | 8.92952 | 5970 ft | 228 kts | 343° |
| 2026-05-05 20:15 | 45.06760 | 8.92376 | 5971 ft | 228 kts | 343° |
| 2026-05-05 20:15 | 45.08304 | 8.91801 | 5970 ft | 229 kts | 343° |
| 2026-05-05 20:15 | 45.09853 | 8.91228 | 5973 ft | 231 kts | 343° |
| 2026-05-05 20:16 | 45.11400 | 8.90653 | 5974 ft | 229 kts | 343° |
| 2026-05-05 20:16 | 45.12938 | 8.90084 | 5969 ft | 229 kts | 343° |
| 2026-05-05 20:16 | 45.14478 | 8.89512 | 5965 ft | 229 kts | 343° |
| 2026-05-05 20:16 | 45.16016 | 8.88940 | 5960 ft | 228 kts | 343° |
| 2026-05-05 20:17 | 45.17550 | 8.88370 | 5965 ft | 229 kts | 343° |
| 2026-05-05 20:17 | 45.19091 | 8.87799 | 5972 ft | 228 kts | 344° |
| 2026-05-05 20:17 | 45.20618 | 8.87230 | 5973 ft | 226 kts | 344° |
| 2026-05-05 20:17 | 45.22129 | 8.86665 | 5796 ft | 223 kts | 344° |
| 2026-05-05 20:18 | 45.23625 | 8.86104 | 5367 ft | 223 kts | 344° |
| 2026-05-05 20:18 | 45.25125 | 8.85545 | 5007 ft | 223 kts | 345° |
| 2026-05-05 20:18 | 45.26618 | 8.84996 | 4634 ft | 220 kts | 345° |
| 2026-05-05 20:18 | 45.28093 | 8.84454 | 4237 ft | 218 kts | 345° |
| 2026-05-05 20:19 | 45.29560 | 8.83909 | 3992 ft | 217 kts | 345° |
| 2026-05-05 20:19 | 45.31021 | 8.83359 | 3969 ft | 217 kts | 344° |
| 2026-05-05 20:19 | 45.32447 | 8.82652 | 3980 ft | 217 kts | 338° |
| 2026-05-05 20:19 | 45.33866 | 8.81909 | 3986 ft | 217 kts | 341° |
| 2026-05-05 20:20 | 45.35303 | 8.81260 | 3993 ft | 218 kts | 344° |
| 2026-05-05 20:20 | 45.36767 | 8.80709 | 4002 ft | 217 kts | 346° |
| 2026-05-05 20:20 | 45.38166 | 8.80237 | 4019 ft | 194 kts | 347° |
| 2026-05-05 20:20 | 45.39441 | 8.79852 | 4019 ft | 186 kts | 348° |
| 2026-05-05 20:21 | 45.40710 | 8.79498 | 4005 ft | 186 kts | 349° |
| 2026-05-05 20:21 | 45.41980 | 8.79147 | 4001 ft | 186 kts | 349° |
| 2026-05-05 20:21 | 45.43235 | 8.78802 | 3993 ft | 187 kts | 349° |
| 2026-05-05 20:21 | 45.44522 | 8.78448 | 3990 ft | 185 kts | 349° |
| 2026-05-05 20:22 | 45.45784 | 8.78101 | 3868 ft | 185 kts | 349° |
| 2026-05-05 20:22 | 45.47043 | 8.77755 | 3648 ft | 184 kts | 349° |
| 2026-05-05 20:22 | 45.48302 | 8.77409 | 3435 ft | 183 kts | 349° |
| 2026-05-05 20:22 | 45.49548 | 8.77066 | 3184 ft | 183 kts | 349° |
| 2026-05-05 20:23 | 45.50796 | 8.76723 | 2933 ft | 182 kts | 350° |
| 2026-05-05 20:23 | 45.52038 | 8.76381 | 2691 ft | 182 kts | 350° |
| 2026-05-05 20:23 | 45.53270 | 8.76041 | 2462 ft | 181 kts | 350° |
| 2026-05-05 20:23 | 45.54495 | 8.75703 | 2229 ft | 181 kts | 350° |
| 2026-05-05 20:24 | 45.55705 | 8.75370 | 1976 ft | 174 kts | 351° |
| 2026-05-05 20:24 | 45.56873 | 8.75045 | 1723 ft | 169 kts | 350° |
| 2026-05-05 20:24 | 45.57993 | 8.74731 | 1477 ft | 160 kts | 351° |
| 2026-05-05 20:24 | 45.59043 | 8.74461 | 1258 ft | 148 kts | 350° |
| 2026-05-05 20:25 | 45.60040 | 8.74172 | 1043 ft | 145 kts | 348° |
| 2026-05-05 20:25 | 45.61031 | 8.73901 | 889 ft | 145 kts | 349° |
| 2026-05-05 20:25 | 45.62014 | 8.73630 | 754 ft | 139 kts | 349° |
| 2026-05-05 20:25 | 45.62780 | 8.73416 | 750 ft | 72 kts | 348° |
| 2026-05-05 20:26 | 45.63070 | 8.73313 | 748 ft | 35 kts | 339° |
| 2026-05-05 20:26 | 45.63239 | 8.73113 | 756 ft | 31 kts | 306° |
| 2026-05-05 20:26 | 45.63344 | 8.72893 | 758 ft | 24 kts | 304° |
| 2026-05-05 20:26 | 45.63409 | 8.72716 | 756 ft | 20 kts | 276° |
| 2026-05-05 20:27 | 45.63389 | 8.72516 | 757 ft | 21 kts | 259° |
| 2026-05-05 20:27 | 45.63361 | 8.72307 | 753 ft | 20 kts | 259° |
| 2026-05-05 20:27 | 45.63335 | 8.72107 | 753 ft | 15 kts | 259° |
| 2026-05-05 20:27 | 45.63327 | 8.72055 | 756 ft | 0 kts | 257° |
| 2026-05-05 20:28 | 45.63320 | 8.72012 | 755 ft | 12 kts | 250° |
| 2026-05-05 20:28 | 45.63242 | 8.71979 | 755 ft | 14 kts | 170° |
| 2026-05-05 20:28 | 45.63176 | 8.71995 | 753 ft | 15 kts | 170° |
| 2026-05-05 20:29 | 45.63066 | 8.72023 | 754 ft | 17 kts | 169° |
| 2026-05-05 20:29 | 45.62944 | 8.72058 | 754 ft | 19 kts | 167° |
| 2026-05-05 20:29 | 45.62815 | 8.72095 | 757 ft | 19 kts | 169° |
| 2026-05-05 20:29 | 45.62774 | 8.72106 | 757 ft | 1 kts | 167° |
| 2026-05-05 20:30 | 45.62761 | 8.72110 | 757 ft | 3 kts | 168° |
| 2026-05-05 20:30 | 45.62757 | 8.72111 | 757 ft | 0 kts | 168° |
| 2026-05-05 20:31 | 45.62748 | 8.72114 | 757 ft | 4 kts | 169° |
| 2026-05-05 20:31 | 45.62698 | 8.72098 | 753 ft | 11 kts | 220° |
| 2026-05-05 20:31 | 45.62672 | 8.71994 | 753 ft | 12 kts | 263° |
| 2026-05-05 20:31 | 45.62657 | 8.71878 | 756 ft | 11 kts | 255° |
| 2026-05-05 20:32 | 45.62608 | 8.71825 | 758 ft | 7 kts | 216° |
| 2026-05-05 20:32 | 45.62573 | 8.71767 | 754 ft | 8 kts | 231° |
| 2026-05-05 20:32 | 45.62556 | 8.71739 | 758 ft | 0 kts | 229° |